createdAt,value
2022-12-29T00:01:53.775Z,99784.84
2022-12-29T00:04:24.325Z,99783.62
2022-12-29T00:06:54.842Z,99783.09
2022-12-29T00:09:25.490Z,99778.28
2022-12-29T00:11:55.938Z,99769.06
2022-12-29T00:14:26.520Z,99766.75
2022-12-29T00:16:57.065Z,99769.75
2022-12-29T00:19:27.685Z,99756.60
2022-12-29T00:21:58.150Z,99765.30
2022-12-29T00:24:28.737Z,99752.05
2022-12-29T00:26:59.245Z,99749.25
2022-12-29T00:29:29.893Z,99746.70
2022-12-29T00:32:00.363Z,99729.49
2022-12-29T00:34:30.926Z,99736.43
2022-12-29T00:37:01.445Z,99736.15
2022-12-29T00:39:32.008Z,99736.82
2022-12-29T00:42:02.473Z,99743.23
2022-12-29T00:44:33.068Z,99736.31
2022-12-29T00:47:03.622Z,99736.30
2022-12-29T00:49:34.398Z,99730.56
2022-12-29T00:52:04.638Z,99732.99
2022-12-29T00:54:35.203Z,99724.13
2022-12-29T00:57:05.735Z,99712.93
2022-12-29T00:59:36.297Z,99719.05
2022-12-29T01:02:06.975Z,99713.75
2022-12-29T01:04:37.399Z,99725.64
2022-12-29T01:07:07.900Z,99717.55
2022-12-29T01:09:38.558Z,99706.65
2022-12-29T01:12:08.991Z,99710.41
2022-12-29T01:14:39.548Z,99715.47
2022-12-29T01:17:10.074Z,99709.55
2022-12-29T01:19:40.674Z,99709.00
2022-12-29T01:22:11.123Z,99701.24
2022-12-29T01:24:41.673Z,99703.08
2022-12-29T01:27:12.188Z,99690.09
2022-12-29T01:29:42.793Z,99697.51
2022-12-29T01:32:13.232Z,99693.55
2022-12-29T01:34:43.856Z,99696.34
2022-12-29T01:37:14.274Z,99695.70
2022-12-29T01:39:44.808Z,99690.50
2022-12-29T01:42:15.319Z,99686.37
2022-12-29T01:44:45.850Z,99682.77
2022-12-29T01:47:16.351Z,99670.62
2022-12-29T01:49:46.886Z,99670.13
2022-12-29T01:52:17.392Z,99671.21
2022-12-29T01:54:47.913Z,99671.52
2022-12-29T01:57:18.416Z,99673.90
2022-12-29T01:59:48.919Z,99666.11
2022-12-29T02:02:19.501Z,99671.18
2022-12-29T02:04:50.098Z,99671.06
2022-12-29T02:07:20.489Z,99665.12
2022-12-29T02:09:51.069Z,99663.29
2022-12-29T02:12:21.487Z,99670.94
2022-12-29T02:14:52.016Z,99666.73
2022-12-29T02:17:22.510Z,99671.53
2022-12-29T02:19:53.072Z,99656.95
2022-12-29T02:22:23.595Z,99645.77
2022-12-29T02:24:54.062Z,99645.21
2022-12-29T02:27:24.573Z,99638.89
2022-12-29T02:29:55.097Z,99643.59
2022-12-29T02:32:25.640Z,99635.95
2022-12-29T02:34:56.143Z,99640.08
2022-12-29T02:37:26.645Z,99635.31
2022-12-29T02:39:57.174Z,99632.22
2022-12-29T02:42:27.672Z,99624.93
2022-12-29T02:44:58.206Z,99625.67
2022-12-29T02:47:28.718Z,99624.41
2022-12-29T02:49:59.328Z,99613.43
2022-12-29T02:52:29.758Z,99633.92
2022-12-29T02:55:00.279Z,99618.68
2022-12-29T02:57:30.818Z,99603.39
2022-12-29T03:00:01.304Z,99610.52
2022-12-29T03:02:32.147Z,99614.58
2022-12-29T03:05:02.384Z,99602.83
2022-12-29T03:07:32.859Z,99612.25
2022-12-29T03:10:03.394Z,99623.90
2022-12-29T03:12:33.989Z,99616.76
2022-12-29T03:15:04.441Z,99612.41
2022-12-29T03:17:34.944Z,99612.85
2022-12-29T03:20:05.474Z,99603.51
2022-12-29T03:22:36.001Z,99617.87
2022-12-29T03:25:06.515Z,99613.85
2022-12-29T03:27:37.032Z,99615.09
2022-12-29T03:30:07.563Z,99613.84
2022-12-29T03:32:38.074Z,99620.27
2022-12-29T03:35:08.615Z,99619.15
2022-12-29T03:37:39.117Z,99621.10
2022-12-29T03:40:09.707Z,99610.94
2022-12-29T03:42:40.178Z,99603.36
2022-12-29T03:45:10.720Z,99605.11
2022-12-29T03:47:41.228Z,99609.51
2022-12-29T03:50:11.762Z,99604.17
2022-12-29T03:52:42.295Z,99595.02
2022-12-29T03:55:12.897Z,99595.92
2022-12-29T03:57:43.393Z,99596.53
2022-12-29T04:00:13.951Z,99599.94
2022-12-29T04:02:44.711Z,99602.66
2022-12-29T04:05:15.011Z,99606.77
2022-12-29T04:07:45.533Z,99612.48
2022-12-29T04:10:16.168Z,99614.54
2022-12-29T04:12:46.599Z,99628.59
2022-12-29T04:15:17.249Z,99614.09
2022-12-29T04:17:47.689Z,99608.34
2022-12-29T04:20:18.236Z,99609.37
2022-12-29T04:22:48.765Z,99615.38
2022-12-29T04:25:19.356Z,99615.97
2022-12-29T04:27:49.835Z,99605.22
2022-12-29T04:30:20.379Z,99605.55
2022-12-29T04:32:50.916Z,99609.78
2022-12-29T04:35:21.457Z,99606.63
2022-12-29T04:37:51.987Z,99615.76
2022-12-29T04:40:22.558Z,99604.74
2022-12-29T04:42:53.095Z,99611.00
2022-12-29T04:45:23.645Z,99619.03
2022-12-29T04:47:54.180Z,99613.58
2022-12-29T04:50:24.739Z,99609.33
2022-12-29T04:52:55.284Z,99604.13
2022-12-29T04:55:25.968Z,99598.53
2022-12-29T04:57:56.375Z,99592.67
2022-12-29T05:00:26.928Z,99587.38
2022-12-29T05:02:57.653Z,99595.55
2022-12-29T05:05:28.118Z,99600.10
2022-12-29T05:07:58.532Z,99598.57
2022-12-29T05:10:29.096Z,99595.67
2022-12-29T05:12:59.626Z,99591.50
2022-12-29T05:15:30.245Z,99587.69
2022-12-29T05:18:00.711Z,99583.66
2022-12-29T05:20:31.357Z,99587.90
2022-12-29T05:23:01.802Z,99591.38
2022-12-29T05:25:32.364Z,99595.50
2022-12-29T05:28:02.866Z,99591.74
2022-12-29T05:30:33.544Z,99598.48
2022-12-29T05:33:03.964Z,99593.57
2022-12-29T05:35:34.587Z,99602.70
2022-12-29T05:38:05.049Z,99608.46
2022-12-29T05:40:35.671Z,99617.74
2022-12-29T05:43:06.139Z,99620.86
2022-12-29T05:45:36.691Z,99623.07
2022-12-29T05:48:07.250Z,99626.49
2022-12-29T05:50:37.797Z,99627.94
2022-12-29T05:53:08.313Z,99627.48
2022-12-29T05:55:43.422Z,99624.53
2022-12-29T05:58:09.416Z,99622.90
2022-12-29T06:00:39.956Z,99624.30
2022-12-29T06:03:10.688Z,99628.29
2022-12-29T06:05:41.043Z,99628.09
2022-12-29T06:08:11.666Z,99639.37
2022-12-29T06:10:42.151Z,99638.66
2022-12-29T06:13:12.716Z,99635.68
2022-12-29T06:15:43.261Z,99636.63
2022-12-29T06:18:17.928Z,99640.44
2022-12-29T06:20:44.409Z,99641.45
2022-12-29T06:23:14.936Z,99648.53
2022-12-29T06:25:45.479Z,99647.32
2022-12-29T06:28:16.101Z,99644.90
2022-12-29T06:30:46.629Z,99653.72
2022-12-29T06:33:17.169Z,99657.43
2022-12-29T06:35:47.745Z,99660.95
2022-12-29T06:38:18.288Z,99671.70
2022-12-29T06:40:48.860Z,99667.38
2022-12-29T06:43:19.493Z,99672.18
2022-12-29T06:45:50.028Z,99685.60
2022-12-29T06:48:20.558Z,99679.38
2022-12-29T06:50:51.127Z,99687.58
2022-12-29T06:53:21.688Z,99676.35
2022-12-29T06:55:52.296Z,99682.14
2022-12-29T06:58:22.882Z,99692.62
2022-12-29T07:00:53.474Z,99698.64
2022-12-29T07:03:24.028Z,99701.53
2022-12-29T07:05:54.559Z,99708.86
2022-12-29T07:08:25.124Z,99706.95
2022-12-29T07:10:55.709Z,99709.36
2022-12-29T07:13:26.287Z,99715.05
2022-12-29T07:15:56.872Z,99711.55
2022-12-29T07:18:27.452Z,99714.54
2022-12-29T07:20:58.049Z,99719.16
2022-12-29T07:23:28.595Z,99721.58
2022-12-29T07:25:59.309Z,99719.70
2022-12-29T07:28:29.764Z,99718.13
2022-12-29T07:31:00.373Z,99712.05
2022-12-29T07:33:31.008Z,99715.78
2022-12-29T07:36:01.518Z,99717.22
2022-12-29T07:38:32.105Z,99722.38
2022-12-29T07:41:02.701Z,99725.14
2022-12-29T07:43:33.259Z,99728.40
2022-12-29T07:46:03.999Z,99728.21
2022-12-29T07:48:34.452Z,99730.33
2022-12-29T07:51:05.029Z,99738.13
2022-12-29T07:53:35.611Z,99735.23
2022-12-29T07:56:06.214Z,99741.72
2022-12-29T07:58:36.784Z,99749.82
2022-12-29T08:01:07.437Z,99759.08
2022-12-29T08:03:38.032Z,99756.79
2022-12-29T08:06:08.595Z,99757.17
2022-12-29T08:08:39.293Z,99766.21
2022-12-29T08:11:09.758Z,99762.47
2022-12-29T08:13:40.343Z,99761.12
2022-12-29T08:16:10.999Z,99765.08
2022-12-29T08:18:41.505Z,99761.31
2022-12-29T08:21:12.116Z,99765.08
2022-12-29T08:23:42.708Z,99765.10
2022-12-29T08:26:13.313Z,99759.89
2022-12-29T08:28:43.902Z,99772.96
2022-12-29T08:31:14.362Z,99769.97
2022-12-29T08:33:44.783Z,99776.05
2022-12-29T08:36:15.372Z,99776.31
2022-12-29T08:38:45.957Z,99772.99
2022-12-29T08:41:16.551Z,99782.17
2022-12-29T08:43:47.133Z,99790.38
2022-12-29T08:46:17.853Z,99792.52
2022-12-29T08:48:48.424Z,99786.07
2022-12-29T08:51:22.933Z,99783.91
2022-12-29T08:53:49.482Z,99785.14
2022-12-29T08:56:20.220Z,99778.96
2022-12-29T08:58:50.676Z,99785.32
2022-12-29T09:01:21.476Z,99765.98
2022-12-29T09:04:14.260Z,99764.35
2022-12-29T09:06:22.463Z,99770.41
2022-12-29T09:08:53.047Z,99774.90
2022-12-29T09:11:23.689Z,99770.02
2022-12-29T09:13:54.248Z,99773.13
2022-12-29T09:16:24.899Z,99777.78
2022-12-29T09:18:55.429Z,99774.56
2022-12-29T09:21:26.044Z,99778.66
2022-12-29T09:23:56.627Z,99780.27
2022-12-29T09:26:27.240Z,99773.18
2022-12-29T09:28:57.887Z,99774.56
2022-12-29T09:31:28.520Z,99767.87
2022-12-29T09:33:59.034Z,99772.63
2022-12-29T09:36:29.719Z,99765.16
2022-12-29T09:39:00.243Z,99763.17
2022-12-29T09:41:30.850Z,99765.07
2022-12-29T09:44:01.441Z,99773.70
2022-12-29T09:46:32.092Z,99767.18
2022-12-29T09:49:02.638Z,99765.87
2022-12-29T09:51:33.245Z,99763.55
2022-12-29T09:54:03.844Z,99765.61
2022-12-29T09:56:34.421Z,99769.45
2022-12-29T09:59:05.092Z,99768.71
2022-12-29T10:01:35.783Z,99771.52
2022-12-29T10:04:06.199Z,99772.12
2022-12-29T10:06:56.245Z,99770.94
2022-12-29T10:09:07.392Z,99776.86
2022-12-29T10:11:38.030Z,99775.21
2022-12-29T10:14:13.727Z,99786.32
2022-12-29T10:16:39.127Z,99785.50
2022-12-29T10:19:09.704Z,99780.61
2022-12-29T10:21:40.264Z,99788.89
2022-12-29T10:24:10.847Z,99788.47
2022-12-29T10:26:41.446Z,99799.61
2022-12-29T10:29:12.006Z,99792.46
2022-12-29T10:31:42.664Z,99786.91
2022-12-29T10:34:13.213Z,99794.86
2022-12-29T10:36:43.855Z,99783.45
2022-12-29T10:39:14.364Z,99769.55
2022-12-29T10:41:44.959Z,99783.17
2022-12-29T10:44:15.533Z,99785.65
2022-12-29T10:46:46.145Z,99794.78
2022-12-29T10:49:21.280Z,99792.43
2022-12-29T10:51:47.283Z,99799.26
2022-12-29T10:54:17.857Z,99798.10
2022-12-29T10:56:48.468Z,99793.04
2022-12-29T10:59:19.018Z,99799.62
2022-12-29T11:01:49.844Z,99795.33
2022-12-29T11:04:20.138Z,99802.66
2022-12-29T11:06:50.721Z,99799.41
2022-12-29T11:09:21.272Z,99806.44
2022-12-29T11:11:51.851Z,99801.31
2022-12-29T11:14:22.400Z,99801.91
2022-12-29T11:16:53.032Z,99803.11
2022-12-29T11:19:23.524Z,99804.69
2022-12-29T11:21:54.110Z,99803.55
2022-12-29T11:24:24.667Z,99813.37
2022-12-29T11:26:55.243Z,99811.16
2022-12-29T11:29:25.810Z,99816.74
2022-12-29T11:31:56.567Z,99822.59
2022-12-29T11:34:26.825Z,99825.32
2022-12-29T11:36:57.233Z,99825.58
2022-12-29T11:39:27.822Z,99833.06
2022-12-29T11:41:58.368Z,99840.93
2022-12-29T11:44:28.915Z,99847.33
2022-12-29T11:46:59.504Z,99845.76
2022-12-29T11:49:30.042Z,99857.46
2022-12-29T11:52:00.646Z,99856.82
2022-12-29T11:54:31.187Z,99866.24
2022-12-29T11:57:01.750Z,99880.04
2022-12-29T11:59:32.354Z,99871.65
2022-12-29T12:02:03.039Z,99878.02
2022-12-29T12:04:33.497Z,99873.74
2022-12-29T12:07:04.027Z,99881.10
2022-12-29T12:09:34.603Z,99880.71
2022-12-29T12:12:05.341Z,99868.15
2022-12-29T12:14:35.755Z,99888.75
2022-12-29T12:17:06.358Z,99859.63
2022-12-29T12:19:36.930Z,99894.19
2022-12-29T12:22:07.520Z,99900.77
2022-12-29T12:24:38.087Z,99905.71
2022-12-29T12:27:08.779Z,99913.51
2022-12-29T12:29:39.251Z,99916.97
2022-12-29T12:32:09.828Z,99930.09
2022-12-29T12:34:40.399Z,99938.53
2022-12-29T12:37:10.967Z,99951.47
2022-12-29T12:39:41.561Z,99942.91
2022-12-29T12:42:12.127Z,99952.52
2022-12-29T12:44:42.764Z,99944.65
2022-12-29T12:47:13.322Z,99956.61
2022-12-29T12:49:43.908Z,99963.72
2022-12-29T12:52:14.578Z,99955.39
2022-12-29T12:54:45.071Z,99962.29
2022-12-29T12:57:15.678Z,99969.59
2022-12-29T12:59:46.252Z,99974.13
2022-12-29T13:02:17.198Z,99968.71
2022-12-29T13:04:47.446Z,99977.19
2022-12-29T13:07:18.044Z,99980.38
2022-12-29T13:09:48.639Z,99989.29
2022-12-29T13:12:19.328Z,99997.58
2022-12-29T13:14:49.802Z,100008.80
2022-12-29T13:17:20.552Z,100011.87
2022-12-29T13:19:50.964Z,100010.37
2022-12-29T13:22:21.548Z,100015.45
2022-12-29T13:24:52.134Z,100014.07
2022-12-29T13:27:22.821Z,100018.25
2022-12-29T13:29:53.279Z,100018.84
2022-12-29T13:32:23.896Z,100021.21
2022-12-29T13:34:54.503Z,100025.08
2022-12-29T13:37:27.041Z,100032.24
2022-12-29T13:39:55.667Z,100032.95
2022-12-29T13:42:26.213Z,100034.01
2022-12-29T13:44:56.802Z,100038.40
2022-12-29T13:47:27.408Z,100044.78
2022-12-29T13:49:57.979Z,100042.41
2022-12-29T13:52:28.641Z,100045.04
2022-12-29T13:54:59.151Z,100049.71
2022-12-29T13:57:29.784Z,100052.20
2022-12-29T14:00:00.331Z,100067.52
2022-12-29T14:02:31.023Z,100072.00
2022-12-29T14:05:01.480Z,100065.41
2022-12-29T14:07:32.124Z,100066.86
2022-12-29T14:10:02.698Z,100071.78
2022-12-29T14:12:33.390Z,100083.32
2022-12-29T14:15:03.851Z,100090.41
2022-12-29T14:17:34.455Z,100091.08
2022-12-29T14:20:05.042Z,100089.92
2022-12-29T14:22:35.622Z,100090.64
2022-12-29T14:25:06.230Z,100090.26
2022-12-29T14:27:36.857Z,100090.57
2022-12-29T14:30:07.400Z,100088.18
2022-12-29T14:32:37.734Z,100087.98
2022-12-29T14:35:08.238Z,100094.83
2022-12-29T14:37:38.848Z,100092.71
2022-12-29T14:40:09.446Z,100092.29
2022-12-29T14:42:40.028Z,100091.02
2022-12-29T14:45:10.621Z,100099.24
2022-12-29T14:47:41.223Z,100101.13
2022-12-29T14:50:11.798Z,100098.13
2022-12-29T14:52:42.401Z,100099.26
2022-12-29T14:55:12.999Z,100096.57
2022-12-29T14:57:43.610Z,100101.27
2022-12-29T15:00:14.204Z,100100.86
2022-12-29T15:02:44.977Z,100100.23
2022-12-29T15:05:15.391Z,100104.61
2022-12-29T15:07:46.002Z,100109.24
2022-12-29T15:10:16.607Z,100111.49
2022-12-29T15:12:47.201Z,100111.29
2022-12-29T15:15:17.802Z,100113.81
2022-12-29T15:17:48.433Z,100117.99
2022-12-29T15:20:19.100Z,100111.29
2022-12-29T15:22:49.629Z,100119.91
2022-12-29T15:25:20.234Z,100122.54
2022-12-29T15:27:50.548Z,100122.49
2022-12-29T15:30:21.157Z,100123.64
2022-12-29T15:32:51.852Z,100121.50
2022-12-29T15:35:22.367Z,100126.88
2022-12-29T15:37:52.704Z,100122.32
2022-12-29T15:40:23.300Z,100122.65
2022-12-29T15:42:53.974Z,100127.01
2022-12-29T15:45:24.702Z,100132.05
2022-12-29T15:47:55.231Z,100128.42
2022-12-29T15:50:25.764Z,100130.82
2022-12-29T15:52:56.370Z,100135.62
2022-12-29T15:55:27.007Z,100135.58
2022-12-29T15:57:57.656Z,100137.36
2022-12-29T16:00:28.217Z,100130.20
2022-12-29T16:02:58.976Z,100133.50
2022-12-29T16:05:29.462Z,100136.43
2022-12-29T16:08:00.183Z,100139.45
2022-12-29T16:10:30.676Z,100137.37
2022-12-29T16:13:01.292Z,100144.56
2022-12-29T16:15:31.975Z,100147.33
2022-12-29T16:18:02.527Z,100145.45
2022-12-29T16:20:33.111Z,100138.76
2022-12-29T16:23:03.717Z,100129.26
2022-12-29T16:25:34.317Z,100143.55
2022-12-29T16:28:04.920Z,100143.29
2022-12-29T16:30:35.696Z,100141.36
2022-12-29T16:33:06.150Z,100153.48
2022-12-29T16:35:36.725Z,100153.05
2022-12-29T16:38:07.336Z,100151.04
2022-12-29T16:40:37.991Z,100157.76
2022-12-29T16:43:08.557Z,100153.73
2022-12-29T16:45:39.347Z,100164.57
2022-12-29T16:48:09.809Z,100172.38
2022-12-29T16:50:40.363Z,100173.96
2022-12-29T16:53:11.030Z,100179.45
2022-12-29T16:55:41.634Z,100177.92
2022-12-29T16:58:12.218Z,100175.45
2022-12-29T17:00:42.832Z,100179.82
2022-12-29T17:03:13.610Z,100178.55
2022-12-29T17:05:44.076Z,100175.83
2022-12-29T17:08:14.741Z,100176.68
2022-12-29T17:10:45.367Z,100183.26
2022-12-29T17:13:15.957Z,100186.18
2022-12-29T17:15:46.644Z,100180.98
2022-12-29T17:18:17.215Z,100177.39
2022-12-29T17:20:47.810Z,100177.57
2022-12-29T17:23:24.466Z,100184.52
2022-12-29T17:25:49.217Z,100188.69
2022-12-29T17:28:19.666Z,100191.99
2022-12-29T17:30:50.312Z,100202.64
2022-12-29T17:33:20.967Z,100199.60
2022-12-29T17:35:55.503Z,100199.25
2022-12-29T17:38:22.138Z,100198.92
2022-12-29T17:40:52.843Z,100198.08
2022-12-29T17:43:23.389Z,100203.58
2022-12-29T17:45:54.137Z,100199.82
2022-12-29T17:48:24.625Z,100198.06
2022-12-29T17:50:55.209Z,100196.29
2022-12-29T17:53:25.849Z,100204.42
2022-12-29T17:55:56.656Z,100206.06
2022-12-29T17:58:27.155Z,100207.81
2022-12-29T18:00:57.768Z,100209.15
2022-12-29T18:03:28.635Z,100210.85
2022-12-29T18:05:58.971Z,100210.65
2022-12-29T18:08:29.649Z,100209.87
2022-12-29T18:11:00.219Z,100208.28
2022-12-29T18:13:43.684Z,100216.52
2022-12-29T18:16:01.180Z,100220.00
2022-12-29T18:18:31.817Z,100226.13
2022-12-29T18:21:02.371Z,100235.01
2022-12-29T18:23:33.294Z,100240.22
2022-12-29T18:26:03.677Z,100241.93
2022-12-29T18:28:34.272Z,100251.42
2022-12-29T18:31:04.934Z,100261.21
2022-12-29T18:33:35.652Z,100266.67
2022-12-29T18:36:06.253Z,100264.48
2022-12-29T18:38:36.814Z,100260.56
2022-12-29T18:41:07.498Z,100259.47
2022-12-29T18:43:38.064Z,100261.09
2022-12-29T18:46:08.722Z,100264.21
2022-12-29T18:48:39.325Z,100263.78
2022-12-29T18:51:09.956Z,100268.43
2022-12-29T18:53:40.607Z,100272.26
2022-12-29T18:56:11.219Z,100277.24
2022-12-29T18:58:41.887Z,100279.22
2022-12-29T19:01:12.573Z,100274.64
2022-12-29T19:03:43.214Z,100273.35
2022-12-29T19:06:13.772Z,100273.86
2022-12-29T19:08:44.445Z,100276.84
2022-12-29T19:11:15.101Z,100275.51
2022-12-29T19:13:45.786Z,100280.17
2022-12-29T19:16:16.434Z,100281.41
2022-12-29T19:18:53.627Z,100278.20
2022-12-29T19:21:17.630Z,100287.68
2022-12-29T19:23:48.286Z,100287.58
2022-12-29T19:26:18.266Z,100291.78
2022-12-29T19:28:48.428Z,100293.22
2022-12-29T19:31:19.093Z,100296.30
2022-12-29T19:33:49.720Z,100302.04
2022-12-29T19:36:20.342Z,100307.86
2022-12-29T19:38:51.107Z,100306.85
2022-12-29T19:41:21.647Z,100312.89
2022-12-29T19:43:52.306Z,100316.58
2022-12-29T19:46:23.047Z,100320.42
2022-12-29T19:48:53.603Z,100317.37
2022-12-29T19:51:24.250Z,100326.14
2022-12-29T19:53:54.905Z,100332.12
2022-12-29T19:56:25.549Z,100336.26
2022-12-29T19:58:56.195Z,100330.70
2022-12-29T20:01:26.959Z,100336.50
2022-12-29T20:03:57.482Z,100347.98
2022-12-29T20:06:27.864Z,100350.50
2022-12-29T20:08:58.523Z,100350.49
2022-12-29T20:11:29.186Z,100357.49
2022-12-29T20:13:59.842Z,100360.17
2022-12-29T20:16:30.549Z,100368.22
2022-12-29T20:19:01.176Z,100369.46
2022-12-29T20:21:31.794Z,100371.13
2022-12-29T20:24:02.453Z,100372.57
2022-12-29T20:26:33.096Z,100378.25
2022-12-29T20:29:03.787Z,100378.52
2022-12-29T20:31:34.500Z,100386.26
2022-12-29T20:34:05.065Z,100383.89
2022-12-29T20:36:35.413Z,100384.23
2022-12-29T20:39:06.065Z,100384.76
2022-12-29T20:41:36.711Z,100386.58
2022-12-29T20:44:07.377Z,100389.54
2022-12-29T20:46:43.636Z,100395.02
2022-12-29T20:49:08.381Z,100392.98
2022-12-29T20:52:04.912Z,100390.92
2022-12-29T20:54:09.664Z,100404.27
2022-12-29T20:56:40.414Z,100398.48
2022-12-29T20:59:27.506Z,100405.76
2022-12-29T21:01:41.745Z,100410.15
2022-12-29T21:04:12.275Z,100416.02
2022-12-29T21:06:42.557Z,100422.61
2022-12-29T21:09:13.217Z,100411.32
2022-12-29T21:11:43.869Z,100410.63
2022-12-29T21:14:14.501Z,100408.80
2022-12-29T21:16:45.226Z,100419.69
2022-12-29T21:19:15.764Z,100415.51
2022-12-29T21:21:46.359Z,100419.22
2022-12-29T21:24:16.990Z,100426.33
2022-12-29T21:26:47.612Z,100422.93
2022-12-29T21:29:18.252Z,100424.28
2022-12-29T21:31:48.887Z,100425.94
2022-12-29T21:34:19.516Z,100426.46
2022-12-29T21:36:50.145Z,100431.51
2022-12-29T21:39:20.788Z,100431.54
2022-12-29T21:41:51.406Z,100437.44
2022-12-29T21:44:22.055Z,100448.95
2022-12-29T21:46:52.683Z,100455.51
2022-12-29T21:49:23.360Z,100454.13
2022-12-29T21:51:53.725Z,100447.13
2022-12-29T21:54:24.416Z,100452.15
2022-12-29T21:56:54.936Z,100447.36
2022-12-29T21:59:25.684Z,100453.66
2022-12-29T22:01:56.373Z,100461.09
2022-12-29T22:04:26.590Z,100446.19
2022-12-29T22:06:57.219Z,100455.65
2022-12-29T22:09:27.926Z,100467.41
2022-12-29T22:11:58.146Z,100474.60
2022-12-29T22:14:28.811Z,100479.24
2022-12-29T22:16:59.453Z,100481.93
2022-12-29T22:19:30.263Z,100488.21
2022-12-29T22:22:00.750Z,100485.97
2022-12-29T22:24:31.425Z,100481.87
2022-12-29T22:27:01.705Z,100477.07
2022-12-29T22:29:32.446Z,100472.67
2022-12-29T22:32:03.094Z,100482.80
2022-12-29T22:34:33.780Z,100486.29
2022-12-29T22:37:04.397Z,100481.96
2022-12-29T22:39:35.062Z,100485.10
2022-12-29T22:42:05.714Z,100491.65
2022-12-29T22:44:36.390Z,100496.46
2022-12-29T22:47:06.404Z,100497.60
2022-12-29T22:49:37.110Z,100507.46
2022-12-29T22:52:07.737Z,100502.24
2022-12-29T22:54:38.441Z,100506.01
2022-12-29T22:57:09.196Z,100510.65
2022-12-29T22:59:39.795Z,100511.41
2022-12-29T23:02:10.296Z,100511.86
2022-12-29T23:05:02.967Z,100520.99
2022-12-29T23:07:11.534Z,100518.20
2022-12-29T23:09:42.217Z,100530.88
2022-12-29T23:12:12.895Z,100528.30
2022-12-29T23:14:43.606Z,100536.76
2022-12-29T23:17:14.279Z,100534.63
2022-12-29T23:19:44.983Z,100541.88
2022-12-29T23:22:15.633Z,100546.98
2022-12-29T23:24:46.335Z,100554.05
2022-12-29T23:27:16.994Z,100561.20
2022-12-29T23:29:47.723Z,100567.27
2022-12-29T23:32:18.372Z,100563.10
2022-12-29T23:34:49.044Z,100572.17
2022-12-29T23:37:19.700Z,100581.40
2022-12-29T23:39:50.395Z,100579.44
2022-12-29T23:42:21.059Z,100582.47
2022-12-29T23:44:51.826Z,100578.27
2022-12-29T23:47:22.416Z,100591.12
2022-12-29T23:49:53.099Z,100595.04
2022-12-29T23:52:23.794Z,100595.71
2022-12-29T23:54:54.559Z,100606.17
2022-12-29T23:57:25.110Z,100601.17
2022-12-29T23:59:55.507Z,100598.94
